createdAt,value
2018-06-27T00:01:33.457Z,102390.20
2018-06-27T00:04:01.899Z,102391.05
2018-06-27T00:06:31.097Z,102397.64
2018-06-27T00:08:59.830Z,102394.64
2018-06-27T00:11:28.250Z,102401.72
2018-06-27T00:13:57.541Z,102396.21
2018-06-27T00:16:26.628Z,102405.33
2018-06-27T00:18:55.509Z,102410.24
2018-06-27T00:21:24.074Z,102398.01
2018-06-27T00:23:54.381Z,102397.53
2018-06-27T00:26:23.285Z,102399.75
2018-06-27T00:28:51.725Z,102397.89
2018-06-27T00:31:20.385Z,102395.25
2018-06-27T00:33:48.866Z,102393.09
2018-06-27T00:36:17.785Z,102387.81
2018-06-27T00:38:46.835Z,102388.30
2018-06-27T00:41:15.837Z,102385.17
2018-06-27T00:43:44.269Z,102388.18
2018-06-27T00:46:13.213Z,102387.11
2018-06-27T00:48:42.051Z,102388.00
2018-06-27T00:51:10.501Z,102383.09
2018-06-27T00:53:46.116Z,102384.34
2018-06-27T00:56:14.977Z,102387.77
2018-06-27T00:58:43.563Z,102387.23
2018-06-27T01:01:12.869Z,102391.19
2018-06-27T01:03:41.309Z,102391.67
2018-06-27T01:06:10.153Z,102389.51
2018-06-27T01:08:39.605Z,102386.93
2018-06-27T01:11:08.030Z,102390.83
2018-06-27T01:13:36.801Z,102390.83
2018-06-27T01:16:05.561Z,102387.30
2018-06-27T01:18:34.148Z,102392.51
2018-06-27T01:21:02.655Z,102391.67
2018-06-27T01:23:31.114Z,102395.27
2018-06-27T01:26:01.514Z,102402.81
2018-06-27T01:28:30.151Z,102400.54
2018-06-27T01:30:59.670Z,102402.28
2018-06-27T01:33:28.089Z,102397.36
2018-06-27T01:35:58.142Z,102397.78
2018-06-27T01:38:26.583Z,102401.32
2018-06-27T01:40:58.718Z,102407.97
2018-06-27T01:43:27.277Z,102406.66
2018-06-27T01:45:55.698Z,102409.17
2018-06-27T01:48:24.837Z,102408.75
2018-06-27T01:50:53.471Z,102407.02
2018-06-27T01:53:21.901Z,102413.13
2018-06-27T01:55:50.593Z,102405.28
2018-06-27T01:58:19.148Z,102407.49
2018-06-27T02:00:47.565Z,102407.67
2018-06-27T02:03:16.646Z,102409.89
2018-06-27T02:05:45.229Z,102375.84
2018-06-27T02:08:14.782Z,102410.84
2018-06-27T02:10:43.743Z,102415.64
2018-06-27T02:13:12.194Z,102418.77
2018-06-27T02:15:40.607Z,102416.13
2018-06-27T02:18:09.417Z,102418.41
2018-06-27T02:20:37.890Z,102411.45
2018-06-27T02:23:07.881Z,102414.14
2018-06-27T02:25:36.949Z,102414.73
2018-06-27T02:28:05.466Z,102410.48
2018-06-27T02:30:33.982Z,102421.56
2018-06-27T02:33:02.677Z,102419.23
2018-06-27T02:35:31.193Z,102424.88
2018-06-27T02:37:59.618Z,102421.88
2018-06-27T02:40:28.089Z,102421.62
2018-06-27T02:42:56.717Z,102418.62
2018-06-27T02:45:25.221Z,102415.20
2018-06-27T02:47:53.835Z,102421.91
2018-06-27T02:50:22.993Z,102425.60
2018-06-27T02:52:51.653Z,102424.81
2018-06-27T02:55:20.067Z,102426.79
2018-06-27T02:57:49.459Z,102423.90
2018-06-27T03:00:17.889Z,102424.06
2018-06-27T03:02:47.210Z,102416.00
2018-06-27T03:05:16.478Z,102415.33
2018-06-27T03:07:45.846Z,102421.25
2018-06-27T03:10:14.269Z,102417.45
2018-06-27T03:12:43.080Z,102422.48
2018-06-27T03:15:11.906Z,102420.42
2018-06-27T03:17:41.364Z,102419.73
2018-06-27T03:20:09.851Z,102411.50
2018-06-27T03:22:38.582Z,102409.91
2018-06-27T03:25:07.018Z,102414.52
2018-06-27T03:27:35.493Z,102418.16
2018-06-27T03:30:04.118Z,102422.33
2018-06-27T03:32:32.905Z,102426.50
2018-06-27T03:35:02.010Z,102425.76
2018-06-27T03:37:30.706Z,102422.38
2018-06-27T03:39:59.126Z,102423.42
2018-06-27T03:42:28.378Z,102426.70
2018-06-27T03:44:57.073Z,102429.49
2018-06-27T03:47:26.241Z,102426.63
2018-06-27T03:49:54.697Z,102394.08
2018-06-27T03:52:23.681Z,102419.89
2018-06-27T03:54:52.497Z,102419.19
2018-06-27T03:57:20.950Z,102423.78
2018-06-27T03:59:49.390Z,102423.12
2018-06-27T04:02:18.177Z,102424.16
2018-06-27T04:04:46.614Z,102428.84
2018-06-27T04:07:15.065Z,102425.96
2018-06-27T04:09:44.466Z,102425.30
2018-06-27T04:12:12.957Z,102426.81
2018-06-27T04:14:42.426Z,102429.69
2018-06-27T04:17:10.937Z,102422.82
2018-06-27T04:19:40.005Z,102421.77
2018-06-27T04:22:08.457Z,102422.46
2018-06-27T04:27:06.992Z,102416.39
2018-06-27T04:29:35.420Z,102420.20
2018-06-27T04:32:03.860Z,102420.45
2018-06-27T04:34:32.763Z,102420.66
2018-06-27T04:37:01.746Z,102420.86
2018-06-27T04:39:30.158Z,102417.64
2018-06-27T04:42:00.819Z,102423.61
2018-06-27T04:44:29.270Z,102423.37
2018-06-27T04:46:57.974Z,102415.61
2018-06-27T04:49:26.810Z,102414.02
2018-06-27T04:51:55.269Z,102410.26
2018-06-27T04:54:23.687Z,102410.52
2018-06-27T04:56:53.162Z,102416.44
2018-06-27T04:59:21.597Z,102421.56
2018-06-27T05:01:50.062Z,102415.93
2018-06-27T05:04:18.729Z,102422.45
2018-06-27T05:06:47.229Z,102424.02
2018-06-27T05:09:15.681Z,102419.70
2018-06-27T05:11:44.716Z,102430.46
2018-06-27T05:14:13.141Z,102426.64
2018-06-27T05:16:41.954Z,102432.12
2018-06-27T05:19:11.133Z,102430.95
2018-06-27T05:21:39.599Z,102432.44
2018-06-27T05:24:08.057Z,102435.28
2018-06-27T05:26:37.264Z,102435.44
2018-06-27T05:29:05.792Z,102431.54
2018-06-27T05:31:34.372Z,102431.23
2018-06-27T05:34:03.072Z,102430.02
2018-06-27T05:36:31.999Z,102425.71
2018-06-27T05:39:00.457Z,102420.91
2018-06-27T05:41:30.343Z,102422.36
2018-06-27T05:43:58.858Z,102429.63
2018-06-27T05:46:27.366Z,102417.34
2018-06-27T05:48:57.117Z,102421.84
2018-06-27T05:51:25.614Z,102421.90
2018-06-27T05:53:54.213Z,102415.30
2018-06-27T05:56:23.235Z,102419.42
2018-06-27T05:58:51.889Z,102424.41
2018-06-27T06:01:20.605Z,102432.04
2018-06-27T06:03:49.182Z,102427.25
2018-06-27T06:06:17.614Z,102432.23
2018-06-27T06:08:46.133Z,102437.23
2018-06-27T06:11:14.700Z,102430.72
2018-06-27T06:13:43.149Z,102428.14
2018-06-27T06:16:12.105Z,102427.80
2018-06-27T06:18:41.541Z,102428.38
2018-06-27T06:21:09.992Z,102434.29
2018-06-27T06:23:38.423Z,102432.63
2018-06-27T06:26:07.093Z,102426.53
2018-06-27T06:28:35.549Z,102430.19
2018-06-27T06:31:04.039Z,102427.20
2018-06-27T06:33:33.093Z,102430.84
2018-06-27T06:36:01.523Z,102434.05
2018-06-27T06:38:30.781Z,102434.60
2018-06-27T06:40:59.793Z,102431.15
2018-06-27T06:43:28.693Z,102433.45
2018-06-27T06:45:57.207Z,102432.16
2018-06-27T06:48:26.621Z,102431.34
2018-06-27T06:50:55.109Z,102432.34
2018-06-27T06:53:23.537Z,102438.69
2018-06-27T06:55:52.117Z,102430.39
2018-06-27T06:58:20.545Z,102437.19
2018-06-27T07:00:49.114Z,102437.72
2018-06-27T07:03:17.743Z,102441.34
2018-06-27T07:05:46.625Z,102443.16
2018-06-27T07:08:15.107Z,102445.88
2018-06-27T07:10:43.658Z,102438.38
2018-06-27T07:13:12.485Z,102445.60
2018-06-27T07:15:40.919Z,102449.71
2018-06-27T07:18:09.558Z,102449.31
2018-06-27T07:20:38.294Z,102451.13
2018-06-27T07:23:06.914Z,102458.73
2018-06-27T07:25:35.573Z,102452.10
2018-06-27T07:28:04.353Z,102454.85
2018-06-27T07:30:33.793Z,102454.44
2018-06-27T07:33:02.350Z,102456.30
2018-06-27T07:35:30.925Z,102456.36
2018-06-27T07:38:00.314Z,102456.40
2018-06-27T07:40:29.247Z,102472.05
2018-06-27T07:42:57.764Z,102461.31
2018-06-27T07:45:26.249Z,102452.41
2018-06-27T07:47:54.954Z,102453.25
2018-06-27T07:50:23.701Z,102453.19
2018-06-27T07:52:52.395Z,102457.45
2018-06-27T07:55:20.985Z,102457.32
2018-06-27T07:57:49.430Z,102461.20
2018-06-27T08:00:18.126Z,102465.73
2018-06-27T08:02:47.012Z,102459.70
2018-06-27T08:05:15.494Z,102465.24
2018-06-27T08:07:44.041Z,102465.48
2018-06-27T08:10:12.990Z,102463.55
2018-06-27T08:12:41.579Z,102465.99
2018-06-27T08:15:10.000Z,102464.88
2018-06-27T08:17:38.585Z,102466.32
2018-06-27T08:20:07.085Z,102462.88
2018-06-27T08:22:35.723Z,102468.81
2018-06-27T08:25:04.888Z,102473.39
2018-06-27T08:27:33.302Z,102473.55
2018-06-27T08:30:01.874Z,102477.91
2018-06-27T08:32:30.782Z,102480.41
2018-06-27T08:34:59.195Z,102472.08
2018-06-27T08:37:27.929Z,102473.63
2018-06-27T08:39:56.557Z,102471.22
2018-06-27T08:42:25.017Z,102477.28
2018-06-27T08:44:53.440Z,102472.20
2018-06-27T08:47:22.025Z,102471.00
2018-06-27T08:49:50.584Z,102475.75
2018-06-27T08:52:19.122Z,102473.81
2018-06-27T08:54:48.393Z,102475.59
2018-06-27T08:57:18.321Z,102467.17
2018-06-27T08:59:47.242Z,102473.22
2018-06-27T09:02:15.898Z,102468.91
2018-06-27T09:04:44.607Z,102479.05
2018-06-27T09:07:13.101Z,102473.22
2018-06-27T09:09:42.169Z,102478.38
2018-06-27T09:12:10.599Z,102476.86
2018-06-27T09:14:39.061Z,102478.48
2018-06-27T09:17:07.898Z,102478.45
2018-06-27T09:19:36.330Z,102471.31
2018-06-27T09:22:05.009Z,102472.75
2018-06-27T09:24:34.174Z,102474.77
2018-06-27T09:27:02.603Z,102479.98
2018-06-27T09:29:31.017Z,102478.23
2018-06-27T09:31:59.649Z,102486.12
2018-06-27T09:34:28.082Z,102476.47
2018-06-27T09:36:56.566Z,102481.45
2018-06-27T09:39:26.386Z,102478.08
2018-06-27T09:41:55.085Z,102483.13
2018-06-27T09:44:24.042Z,102483.77
2018-06-27T09:46:53.043Z,102487.39
2018-06-27T09:49:21.842Z,102481.33
2018-06-27T09:51:50.269Z,102482.56
2018-06-27T09:54:19.098Z,102475.94
2018-06-27T09:56:47.920Z,102482.78
2018-06-27T09:59:16.329Z,102485.58
2018-06-27T10:01:44.974Z,102477.02
2018-06-27T10:04:13.733Z,102471.66
2018-06-27T10:06:42.502Z,102476.09
2018-06-27T10:09:11.492Z,102475.87
2018-06-27T10:11:40.069Z,102480.67
2018-06-27T10:14:08.498Z,102473.91
2018-06-27T10:16:37.244Z,102473.52
2018-06-27T10:19:06.028Z,102465.92
2018-06-27T10:21:34.614Z,102469.50
2018-06-27T10:24:03.283Z,102467.53
2018-06-27T10:26:32.089Z,102460.59
2018-06-27T10:29:00.628Z,102465.09
2018-06-27T10:31:29.660Z,102459.03
2018-06-27T10:33:58.125Z,102473.25
2018-06-27T10:36:26.672Z,102469.06
2018-06-27T10:38:55.139Z,102468.88
2018-06-27T10:41:23.686Z,102476.50
2018-06-27T10:43:52.649Z,102465.81
2018-06-27T10:46:21.463Z,102459.31
2018-06-27T10:48:49.916Z,102464.70
2018-06-27T10:51:19.037Z,102464.33
2018-06-27T10:53:47.651Z,102459.16
2018-06-27T10:56:16.079Z,102467.33
2018-06-27T10:58:44.687Z,102459.90
2018-06-27T11:01:13.727Z,102455.86
2018-06-27T11:03:42.118Z,102456.47
2018-06-27T11:06:10.764Z,102457.55
2018-06-27T11:08:39.670Z,102459.34
2018-06-27T11:11:08.108Z,102465.69
2018-06-27T11:13:36.849Z,102460.85
2018-06-27T11:16:05.475Z,102464.28
2018-06-27T11:18:33.987Z,102466.94
2018-06-27T11:21:02.516Z,102458.52
2018-06-27T11:23:31.097Z,102460.83
2018-06-27T11:25:59.557Z,102467.63
2018-06-27T11:28:28.258Z,102469.71
2018-06-27T11:30:57.284Z,102348.44
2018-06-27T11:33:25.746Z,102464.69
2018-06-27T11:35:54.885Z,102462.16
2018-06-27T11:38:23.463Z,102465.89
2018-06-27T11:40:51.860Z,102465.53
2018-06-27T11:43:20.765Z,102470.22
2018-06-27T11:45:49.269Z,102463.51
2018-06-27T11:48:17.693Z,102456.47
2018-06-27T11:50:46.198Z,102461.16
2018-06-27T11:53:14.729Z,102455.67
2018-06-27T11:55:43.182Z,102462.12
2018-06-27T11:58:12.140Z,102458.25
2018-06-27T12:00:40.652Z,102462.52
2018-06-27T12:03:09.118Z,102454.97
2018-06-27T12:05:37.992Z,102450.91
2018-06-27T12:08:07.047Z,102453.17
2018-06-27T12:10:35.814Z,102447.39
2018-06-27T12:13:04.428Z,102445.19
2018-06-27T12:15:33.906Z,102448.77
2018-06-27T12:18:02.379Z,102447.93
2018-06-27T12:20:30.820Z,102457.54
2018-06-27T12:22:59.582Z,102446.18
2018-06-27T12:25:28.038Z,102452.37
2018-06-27T12:27:56.611Z,102450.66
2018-06-27T12:30:25.753Z,102449.61
2018-06-27T12:32:54.451Z,102451.58
2018-06-27T12:35:23.245Z,102455.50
2018-06-27T12:37:52.394Z,102450.05
2018-06-27T12:40:21.865Z,102452.05
2018-06-27T12:42:50.294Z,102449.49
2018-06-27T12:45:18.976Z,102449.27
2018-06-27T12:47:47.753Z,102436.80
2018-06-27T12:50:16.279Z,102444.64
2018-06-27T12:52:44.871Z,102438.03
2018-06-27T12:55:14.076Z,102435.83
2018-06-27T12:57:42.684Z,102443.43
2018-06-27T13:00:11.595Z,102438.96
2018-06-27T13:02:40.538Z,102440.18
2018-06-27T13:05:09.747Z,102436.95
2018-06-27T13:07:38.471Z,102439.63
2018-06-27T13:10:08.193Z,102433.20
2018-06-27T13:12:36.978Z,102434.62
2018-06-27T13:15:06.652Z,102427.31
2018-06-27T13:17:35.077Z,102425.38
2018-06-27T13:20:03.670Z,102416.09
2018-06-27T13:22:32.631Z,102417.70
2018-06-27T13:25:01.086Z,102418.83
2018-06-27T13:27:30.414Z,102419.08
2018-06-27T13:29:58.895Z,102417.01
2018-06-27T13:32:27.684Z,102412.00
2018-06-27T13:34:57.140Z,102406.48
2018-06-27T13:37:26.850Z,102406.20
2018-06-27T13:39:55.870Z,102403.28
2018-06-27T13:42:24.858Z,102402.25
2018-06-27T13:44:53.597Z,102403.00
2018-06-27T13:47:22.900Z,102394.77
2018-06-27T13:49:51.398Z,102400.31
2018-06-27T13:52:20.265Z,102393.17
2018-06-27T13:54:53.945Z,102388.24
2018-06-27T13:57:22.864Z,102386.55
2018-06-27T13:59:51.382Z,102386.92
2018-06-27T14:02:20.255Z,102386.25
2018-06-27T14:04:48.787Z,102386.81
2018-06-27T14:07:17.237Z,102383.01
2018-06-27T14:09:45.670Z,102390.11
2018-06-27T14:12:14.963Z,102388.80
2018-06-27T14:14:43.566Z,102390.72
2018-06-27T14:17:12.014Z,102395.81
2018-06-27T14:19:40.572Z,102391.41
2018-06-27T14:22:09.705Z,102393.61
2018-06-27T14:24:38.730Z,102391.08
2018-06-27T14:27:08.114Z,102393.14
2018-06-27T14:29:37.483Z,102396.51
2018-06-27T14:32:06.037Z,102396.70
2018-06-27T14:34:35.570Z,102394.72
2018-06-27T14:37:04.155Z,102398.47
2018-06-27T14:39:32.565Z,102396.79
2018-06-27T14:42:01.346Z,102394.91
2018-06-27T14:44:30.101Z,102396.77
2018-06-27T14:46:58.518Z,102383.95
2018-06-27T14:49:27.422Z,102384.94
2018-06-27T14:51:56.957Z,102381.42
2018-06-27T14:54:25.446Z,102391.03
2018-06-27T14:56:53.948Z,102385.05
2018-06-27T14:59:22.483Z,102379.45
2018-06-27T15:01:50.930Z,102380.85
2018-06-27T15:04:25.939Z,102378.95
2018-06-27T15:06:54.698Z,102378.56
2018-06-27T15:09:23.137Z,102375.44
2018-06-27T15:11:51.730Z,102377.91
2018-06-27T15:14:20.785Z,102377.39
2018-06-27T15:16:49.445Z,102370.64
2018-06-27T15:19:18.986Z,102374.36
2018-06-27T15:21:48.404Z,102375.24
2018-06-27T15:24:17.138Z,102376.94
2018-06-27T15:26:46.069Z,102373.88
2018-06-27T15:29:15.069Z,102371.92
2018-06-27T15:31:43.589Z,102376.94
2018-06-27T15:34:12.144Z,102375.95
2018-06-27T15:36:41.250Z,102370.84
2018-06-27T15:39:10.843Z,102368.69
2018-06-27T15:41:39.603Z,102371.63
2018-06-27T15:44:08.418Z,102368.78
2018-06-27T15:46:37.275Z,102368.38
2018-06-27T15:49:07.573Z,102368.81
2018-06-27T15:51:36.142Z,102366.64
2018-06-27T15:54:04.602Z,102366.58
2018-06-27T15:56:33.175Z,102366.77
2018-06-27T15:59:02.013Z,102364.64
2018-06-27T16:01:31.512Z,102367.70
2018-06-27T16:04:00.013Z,102360.20
2018-06-27T16:06:28.727Z,102361.72
2018-06-27T16:08:57.194Z,102362.68
2018-06-27T16:11:25.795Z,102362.55
2018-06-27T16:13:54.589Z,102379.61
2018-06-27T16:16:23.037Z,102372.52
2018-06-27T16:18:51.757Z,102376.03
2018-06-27T16:21:20.850Z,102372.40
2018-06-27T16:23:49.322Z,102371.54
2018-06-27T16:26:17.875Z,102379.98
2018-06-27T16:28:46.656Z,102383.51
2018-06-27T16:31:15.082Z,102383.67
2018-06-27T16:33:43.971Z,102381.83
2018-06-27T16:36:12.658Z,102381.83
2018-06-27T16:38:41.446Z,102381.05
2018-06-27T16:41:09.988Z,102372.32
2018-06-27T16:43:38.467Z,102386.99
2018-06-27T16:46:06.958Z,102382.86
2018-06-27T16:48:35.402Z,102384.75
2018-06-27T16:51:04.049Z,102380.60
2018-06-27T16:53:32.470Z,102380.26
2018-06-27T16:56:01.120Z,102380.11
2018-06-27T16:58:29.675Z,102384.62
2018-06-27T17:00:58.237Z,102387.71
2018-06-27T17:03:27.135Z,102388.98
2018-06-27T17:05:55.993Z,102393.59
2018-06-27T17:08:24.454Z,102396.91
2018-06-27T17:10:53.501Z,102397.86
2018-06-27T17:13:21.947Z,102401.27
2018-06-27T17:15:50.455Z,102401.29
2018-06-27T17:18:19.263Z,102388.73
2018-06-27T17:20:48.190Z,102393.51
2018-06-27T17:23:16.980Z,102395.30
2018-06-27T17:25:45.670Z,102387.99
2018-06-27T17:28:14.094Z,102390.09
2018-06-27T17:30:43.418Z,102390.05
2018-06-27T17:33:12.510Z,102391.58
2018-06-27T17:35:40.967Z,102389.50
2018-06-27T17:38:09.551Z,102391.98
2018-06-27T17:40:38.885Z,102400.62
2018-06-27T17:43:07.340Z,102401.55
2018-06-27T17:45:35.806Z,102406.09
2018-06-27T17:48:04.695Z,102403.05
2018-06-27T17:50:33.146Z,102408.00
2018-06-27T17:53:01.974Z,102410.73
2018-06-27T17:55:30.625Z,102407.66
2018-06-27T17:57:59.238Z,102408.58
2018-06-27T18:00:27.683Z,102407.70
2018-06-27T18:02:57.286Z,102410.88
2018-06-27T18:05:26.042Z,102414.02
2018-06-27T18:07:54.466Z,102412.69
2018-06-27T18:10:23.745Z,102407.34
2018-06-27T18:12:52.818Z,102415.78
2018-06-27T18:15:21.273Z,102422.07
2018-06-27T18:17:49.852Z,102424.75
2018-06-27T18:20:18.340Z,102431.88
2018-06-27T18:22:47.081Z,102431.87
2018-06-27T18:25:15.659Z,102430.96
2018-06-27T18:27:44.252Z,102432.27
2018-06-27T18:30:13.318Z,102439.38
2018-06-27T18:32:41.906Z,102435.31
2018-06-27T18:35:10.609Z,102433.52
2018-06-27T18:37:39.376Z,102429.92
2018-06-27T18:40:08.746Z,102432.14
2018-06-27T18:42:37.959Z,102434.34
2018-06-27T18:45:07.178Z,102436.56
2018-06-27T18:47:35.667Z,102436.98
2018-06-27T18:50:04.278Z,102443.61
2018-06-27T18:52:32.738Z,102439.56
2018-06-27T18:55:01.222Z,102443.09
2018-06-27T18:57:29.814Z,102446.17
2018-06-27T18:59:58.257Z,102454.13
2018-06-27T19:02:26.823Z,102456.26
2018-06-27T19:04:55.626Z,102458.45
2018-06-27T19:07:25.101Z,102459.74
2018-06-27T19:09:53.574Z,102457.02
2018-06-27T19:12:22.275Z,102454.32
2018-06-27T19:14:51.145Z,102459.63
2018-06-27T19:17:19.814Z,102465.75
2018-06-27T19:19:48.277Z,102469.70
2018-06-27T19:22:16.824Z,102467.87
2018-06-27T19:24:45.717Z,102468.73
2018-06-27T19:27:14.271Z,102469.53
2018-06-27T19:29:43.029Z,102468.14
2018-06-27T19:32:11.575Z,102472.94
2018-06-27T19:34:39.990Z,102463.08
2018-06-27T19:37:08.829Z,102471.94
2018-06-27T19:39:38.600Z,102471.47
2018-06-27T19:42:07.042Z,102462.07
2018-06-27T19:44:36.290Z,102463.37
2018-06-27T19:47:04.996Z,102456.58
2018-06-27T19:49:33.373Z,102463.16
2018-06-27T19:52:02.274Z,102461.66
2018-06-27T19:54:30.805Z,102464.20
2018-06-27T19:56:59.301Z,102472.12
2018-06-27T19:59:27.822Z,102468.83
2018-06-27T20:01:58.038Z,102473.56
2018-06-27T20:04:26.558Z,102462.80
2018-06-27T20:06:54.974Z,102458.30
2018-06-27T20:09:23.453Z,102467.16
2018-06-27T20:11:51.889Z,102466.59
2018-06-27T20:14:20.437Z,102465.10
2018-06-27T20:16:49.206Z,102461.35
2018-06-27T20:19:17.760Z,102463.48
2018-06-27T20:21:46.402Z,102454.14
2018-06-27T20:24:21.491Z,102451.09
2018-06-27T20:26:50.497Z,102452.02
2018-06-27T20:29:18.941Z,102453.27
2018-06-27T20:31:47.926Z,102449.25
2018-06-27T20:34:16.581Z,102452.73
2018-06-27T20:36:45.049Z,102451.89
2018-06-27T20:39:13.930Z,102445.62
2018-06-27T20:41:42.730Z,102446.44
2018-06-27T20:44:11.158Z,102450.05
2018-06-27T20:46:39.977Z,102451.02
2018-06-27T20:49:11.341Z,102452.23
2018-06-27T20:51:40.370Z,102449.97
2018-06-27T20:54:09.362Z,102443.68
2018-06-27T20:56:37.820Z,102453.67
2018-06-27T20:59:06.394Z,102457.69
2018-06-27T21:01:35.679Z,102460.87
2018-06-27T21:04:04.266Z,102448.92
2018-06-27T21:06:32.819Z,102449.41
2018-06-27T21:09:01.495Z,102449.88
2018-06-27T21:11:29.982Z,102447.23
2018-06-27T21:13:58.426Z,102442.84
2018-06-27T21:16:27.462Z,102438.44
2018-06-27T21:18:56.718Z,102446.47
2018-06-27T21:21:25.222Z,102444.73
2018-06-27T21:23:54.517Z,102439.04
2018-06-27T21:26:23.118Z,102439.09
2018-06-27T21:28:52.149Z,102438.62
2018-06-27T21:31:21.414Z,102435.05
2018-06-27T21:33:49.914Z,102446.56
2018-06-27T21:36:18.837Z,102439.86
2018-06-27T21:38:47.522Z,102438.53
2018-06-27T21:41:16.950Z,102439.79
2018-06-27T21:43:45.475Z,102435.80
2018-06-27T21:46:14.126Z,102439.28
2018-06-27T21:48:42.742Z,102435.62
2018-06-27T21:51:11.278Z,102438.23
2018-06-27T21:53:40.410Z,102437.17
2018-06-27T21:56:08.885Z,102439.34
2018-06-27T21:58:37.358Z,102435.22
2018-06-27T22:01:05.986Z,102437.77
2018-06-27T22:03:34.417Z,102441.28
2018-06-27T22:06:02.925Z,102436.36
2018-06-27T22:08:31.997Z,102434.08
2018-06-27T22:11:00.459Z,102431.45
2018-06-27T22:13:28.938Z,102436.77
2018-06-27T22:15:57.635Z,102433.16
2018-06-27T22:18:26.082Z,102393.72
2018-06-27T22:20:54.626Z,102429.47
2018-06-27T22:23:23.210Z,102430.41
2018-06-27T22:25:51.897Z,102431.20
2018-06-27T22:28:20.393Z,102425.83
2018-06-27T22:30:49.562Z,102417.39
2018-06-27T22:33:18.414Z,102418.69
2018-06-27T22:35:46.882Z,102413.72
2018-06-27T22:38:15.618Z,102413.63
2018-06-27T22:40:44.077Z,102416.27
2018-06-27T22:43:12.534Z,102417.56
2018-06-27T22:45:41.446Z,102415.83
2018-06-27T22:48:09.967Z,102414.45
2018-06-27T22:50:38.686Z,102410.83
2018-06-27T22:53:07.209Z,102410.31
2018-06-27T22:55:35.960Z,102407.25
2018-06-27T22:58:04.585Z,102408.52
2018-06-27T23:00:33.474Z,102415.10
2018-06-27T23:03:01.958Z,102410.19
2018-06-27T23:05:31.482Z,102412.78
2018-06-27T23:08:00.023Z,102415.38
2018-06-27T23:10:28.571Z,102415.36
2018-06-27T23:12:57.941Z,102410.94
2018-06-27T23:15:26.818Z,102411.34
2018-06-27T23:17:56.477Z,102406.45
2018-06-27T23:20:25.127Z,102411.27
2018-06-27T23:22:53.831Z,102407.32
2018-06-27T23:25:22.271Z,102407.72
2018-06-27T23:27:50.993Z,102408.19
2018-06-27T23:30:19.865Z,102407.22
2018-06-27T23:32:49.254Z,102404.17
2018-06-27T23:35:17.844Z,102409.39
2018-06-27T23:37:46.382Z,102411.21
2018-06-27T23:40:14.874Z,102405.53
2018-06-27T23:42:43.769Z,102404.20
2018-06-27T23:45:12.357Z,102406.83
2018-06-27T23:47:40.793Z,102409.39
2018-06-27T23:50:09.390Z,102399.63
2018-06-27T23:52:38.478Z,102402.78
2018-06-27T23:55:07.601Z,102397.99
2018-06-27T23:57:36.453Z,102393.11
